createdAt,value
2023-05-21T00:00:53.842Z,10.13
2023-05-21T00:03:21.107Z,10.25
2023-05-21T00:05:50.516Z,10.48
2023-05-21T00:08:17.277Z,9.85
2023-05-21T00:10:43.932Z,10.05
2023-05-21T00:13:10.573Z,10.05
2023-05-21T00:15:37.573Z,10.00
2023-05-21T00:18:04.675Z,10.52
2023-05-21T00:20:32.453Z,10.20
2023-05-21T00:22:59.954Z,10.13
2023-05-21T00:25:26.497Z,11.20
2023-05-21T00:27:54.976Z,10.32
2023-05-21T00:30:21.793Z,9.82
2023-05-21T00:32:48.475Z,10.60
2023-05-21T00:35:15.162Z,10.73
2023-05-21T00:37:42.159Z,10.93
2023-05-21T00:40:09.362Z,10.02
2023-05-21T00:42:39.472Z,10.05
2023-05-21T00:45:07.362Z,10.43
2023-05-21T00:47:35.085Z,10.52
2023-05-21T00:50:06.390Z,10.85
2023-05-21T00:52:33.437Z,11.00
2023-05-21T00:55:00.278Z,10.80
2023-05-21T00:57:27.371Z,12.07
2023-05-21T00:59:54.402Z,11.38
2023-05-21T01:02:24.178Z,11.52
2023-05-21T01:04:51.896Z,11.60
2023-05-21T01:07:18.643Z,11.77
2023-05-21T01:09:45.412Z,11.50
2023-05-21T01:12:13.273Z,11.10
2023-05-21T01:14:41.023Z,11.80
2023-05-21T01:17:10.483Z,12.60
2023-05-21T01:19:37.413Z,11.63
2023-05-21T01:22:06.991Z,11.88
2023-05-21T01:24:34.219Z,12.60
2023-05-21T01:27:06.610Z,12.63
2023-05-21T01:32:34.724Z,11.77
2023-05-21T01:35:12.882Z,12.27
2023-05-21T01:38:04.003Z,12.25
2023-05-21T01:40:53.438Z,12.73
2023-05-21T01:43:22.693Z,12.80
2023-05-21T01:45:55.360Z,13.23
2023-05-21T01:48:24.713Z,13.50
2023-05-21T01:50:52.942Z,13.98
2023-05-21T01:53:19.643Z,13.32
2023-05-21T01:55:47.020Z,13.38
2023-05-21T01:58:13.546Z,14.13
2023-05-21T02:00:40.140Z,14.05
2023-05-21T02:03:06.900Z,14.00
2023-05-21T02:05:33.725Z,13.38
2023-05-21T02:08:01.715Z,14.77
2023-05-21T02:10:28.344Z,14.23
2023-05-21T02:12:54.938Z,14.93
2023-05-21T02:15:22.409Z,15.05
2023-05-21T02:17:51.457Z,15.15
2023-05-21T02:20:18.100Z,15.13
2023-05-21T02:22:46.847Z,15.05
2023-05-21T02:25:16.454Z,15.13
2023-05-21T02:27:43.404Z,14.85
2023-05-21T02:30:12.187Z,14.65
2023-05-21T02:32:43.148Z,15.13
2023-05-21T02:35:12.041Z,15.23
2023-05-21T02:37:44.195Z,15.80
2023-05-21T02:40:12.184Z,15.02
2023-05-21T02:42:40.373Z,15.82
2023-05-21T02:45:11.945Z,15.43
2023-05-21T02:47:38.889Z,15.77
2023-05-21T02:50:07.892Z,16.83
2023-05-21T02:52:34.778Z,15.23
2023-05-21T02:55:02.769Z,15.52
2023-05-21T02:57:29.288Z,16.35
2023-05-21T02:59:55.789Z,17.35
2023-05-21T03:02:22.575Z,16.92
2023-05-21T03:04:50.893Z,16.58
2023-05-21T03:07:20.485Z,15.57
2023-05-21T03:09:47.357Z,16.67
2023-05-21T03:12:14.081Z,16.20
2023-05-21T03:14:44.170Z,17.70
2023-05-21T03:17:14.078Z,16.60
2023-05-21T03:19:42.134Z,17.63
2023-05-21T03:22:09.354Z,16.88
2023-05-21T03:24:36.989Z,17.65
2023-05-21T03:27:06.395Z,17.13
2023-05-21T03:29:33.961Z,17.25
2023-05-21T03:32:01.527Z,17.52
2023-05-21T03:34:28.185Z,16.20
2023-05-21T03:36:54.932Z,16.67
2023-05-21T03:39:21.716Z,17.38
2023-05-21T03:41:48.214Z,17.17
2023-05-21T03:44:14.833Z,16.75
2023-05-21T03:46:41.520Z,16.98
2023-05-21T03:49:08.046Z,17.55
2023-05-21T03:51:34.622Z,18.20
2023-05-21T03:54:01.571Z,18.08
2023-05-21T03:59:18.880Z,17.55
2023-05-21T04:01:45.837Z,18.17
2023-05-21T04:04:12.522Z,17.55
2023-05-21T04:06:39.229Z,18.27
2023-05-21T04:09:05.905Z,18.05
2023-05-21T04:11:32.481Z,19.00
2023-05-21T04:13:58.987Z,18.38
2023-05-21T04:16:25.788Z,18.25
2023-05-21T04:18:55.417Z,18.92
2023-05-21T04:21:22.281Z,18.42
2023-05-21T04:23:49.028Z,18.48
2023-05-21T04:26:16.311Z,18.63
2023-05-21T04:31:33.465Z,18.60
2023-05-21T04:34:00.074Z,17.63
2023-05-21T04:36:29.026Z,18.08
2023-05-21T04:38:56.037Z,17.85
2023-05-21T04:41:22.606Z,18.20
2023-05-21T04:43:49.200Z,18.25
2023-05-21T04:46:15.863Z,18.77
2023-05-21T04:48:42.519Z,17.90
2023-05-21T04:51:09.072Z,17.70
2023-05-21T04:53:35.929Z,17.20
2023-05-21T04:56:03.943Z,18.33
2023-05-21T04:58:32.961Z,17.83
2023-05-21T05:03:30.180Z,17.10
2023-05-21T05:05:56.891Z,16.08
2023-05-21T05:08:23.402Z,18.92
2023-05-21T05:10:50.008Z,18.67
2023-05-21T05:13:22.861Z,18.40
2023-05-21T05:15:50.597Z,18.17
2023-05-21T05:18:18.018Z,18.45
2023-05-21T05:20:44.608Z,18.65
2023-05-21T05:23:12.843Z,18.42
2023-05-21T05:25:39.655Z,19.23
2023-05-21T05:28:06.478Z,18.63
2023-05-21T05:30:33.132Z,18.58
2023-05-21T05:32:59.854Z,17.27
2023-05-21T05:35:26.572Z,18.33
2023-05-21T05:37:53.092Z,17.58
2023-05-21T05:40:19.658Z,16.83
2023-05-21T05:42:46.595Z,18.02
2023-05-21T05:45:13.120Z,17.65
2023-05-21T05:47:39.705Z,17.42
2023-05-21T05:50:06.615Z,17.42
2023-05-21T05:52:33.165Z,16.75
2023-05-21T05:54:59.682Z,16.50
2023-05-21T05:57:26.202Z,17.00
2023-05-21T05:59:52.681Z,16.63
2023-05-21T06:02:19.295Z,17.10
2023-05-21T06:04:45.987Z,17.15
2023-05-21T06:07:12.535Z,17.48
2023-05-21T06:09:39.180Z,17.25
2023-05-21T06:12:12.261Z,17.50
2023-05-21T06:14:43.798Z,17.38
2023-05-21T06:17:12.332Z,17.75
2023-05-21T06:19:39.772Z,16.80
2023-05-21T06:22:06.364Z,17.40
2023-05-21T06:24:34.251Z,16.85
2023-05-21T06:27:00.924Z,18.05
2023-05-21T06:29:27.528Z,16.73
2023-05-21T06:31:54.172Z,16.00
2023-05-21T06:34:20.849Z,15.32
2023-05-21T06:36:48.400Z,15.25
2023-05-21T06:39:15.091Z,14.90
2023-05-21T06:41:41.660Z,14.15
2023-05-21T06:44:08.236Z,15.07
2023-05-21T06:46:35.852Z,13.85
2023-05-21T06:49:02.517Z,14.80
2023-05-21T06:51:29.180Z,14.13
2023-05-21T06:53:56.034Z,14.25
2023-05-21T06:56:22.817Z,14.98
2023-05-21T06:58:49.352Z,14.20
2023-05-21T07:01:16.454Z,14.18
2023-05-21T07:03:43.262Z,13.30
2023-05-21T07:06:09.842Z,12.57
2023-05-21T07:08:36.348Z,13.40
2023-05-21T07:11:03.057Z,13.68
2023-05-21T07:13:30.147Z,13.07
2023-05-21T07:15:56.755Z,13.57
2023-05-21T07:18:23.270Z,12.38
2023-05-21T07:20:50.554Z,13.55
2023-05-21T07:23:17.171Z,10.52
2023-05-21T07:25:43.776Z,13.13
2023-05-21T07:28:11.397Z,12.32
2023-05-21T07:30:38.091Z,11.93
2023-05-21T07:33:04.951Z,12.90
2023-05-21T07:35:31.490Z,13.25
2023-05-21T07:37:58.103Z,12.48
2023-05-21T07:40:24.693Z,14.15
2023-05-21T07:42:52.259Z,13.38
2023-05-21T07:45:18.955Z,13.38
2023-05-21T07:47:46.757Z,14.20
2023-05-21T07:50:14.381Z,13.75
2023-05-21T07:52:41.144Z,13.15
2023-05-21T07:55:09.442Z,13.93
2023-05-21T07:57:36.757Z,12.30
2023-05-21T08:00:10.449Z,12.70
2023-05-21T08:02:37.325Z,13.07
2023-05-21T08:05:04.295Z,13.25
2023-05-21T08:07:31.968Z,13.93
2023-05-21T08:09:59.254Z,13.43
2023-05-21T08:12:25.837Z,13.20
2023-05-21T08:14:52.512Z,12.98
2023-05-21T08:17:18.992Z,13.43
2023-05-21T08:19:45.592Z,13.73
2023-05-21T08:22:12.232Z,12.70
2023-05-21T08:24:39.422Z,13.10
2023-05-21T08:27:05.996Z,13.00
2023-05-21T08:29:33.180Z,12.50
2023-05-21T08:31:59.790Z,13.13
2023-05-21T08:34:26.639Z,13.18
2023-05-21T08:36:53.908Z,11.88
2023-05-21T08:39:20.874Z,12.52
2023-05-21T08:41:51.974Z,12.10
2023-05-21T08:44:26.131Z,12.38
2023-05-21T08:46:55.011Z,11.90
2023-05-21T08:49:27.509Z,13.45
2023-05-21T08:51:55.701Z,12.52
2023-05-21T08:54:22.891Z,12.35
2023-05-21T08:56:49.866Z,12.95
2023-05-21T08:59:18.234Z,12.70
2023-05-21T09:01:45.993Z,12.23
2023-05-21T09:04:21.296Z,11.93
2023-05-21T09:06:48.621Z,12.35
2023-05-21T09:09:28.013Z,12.00
2023-05-21T09:11:54.710Z,11.63
2023-05-21T09:14:23.212Z,12.02
2023-05-21T09:16:50.924Z,12.52
2023-05-21T09:19:20.110Z,12.55
2023-05-21T09:21:46.699Z,12.10
2023-05-21T09:24:14.186Z,12.40
2023-05-21T09:26:44.107Z,12.48
2023-05-21T09:29:13.280Z,11.90
2023-05-21T09:31:46.004Z,10.90
2023-05-21T09:34:14.203Z,11.55
2023-05-21T09:36:40.854Z,12.38
2023-05-21T09:39:07.477Z,11.52
2023-05-21T09:41:36.053Z,11.85
2023-05-21T09:44:03.592Z,13.15
2023-05-21T09:46:50.624Z,11.57
2023-05-21T09:49:26.542Z,11.63
2023-05-21T09:51:59.964Z,11.35
2023-05-21T09:54:32.504Z,11.82
2023-05-21T09:57:03.911Z,12.32
2023-05-21T09:59:39.859Z,11.77
2023-05-21T10:02:21.827Z,11.60
2023-05-21T10:04:50.831Z,11.25
2023-05-21T10:07:25.893Z,11.82
2023-05-21T10:09:57.537Z,11.40
2023-05-21T10:12:27.582Z,11.52
2023-05-21T10:15:03.887Z,11.95
2023-05-21T10:17:31.201Z,11.07
2023-05-21T10:19:59.657Z,10.38
2023-05-21T10:22:26.267Z,10.38
2023-05-21T10:24:53.123Z,10.07
2023-05-21T10:27:20.042Z,10.50
2023-05-21T10:29:48.919Z,10.98
2023-05-21T10:32:19.183Z,10.25
2023-05-21T10:34:46.727Z,10.60
2023-05-21T10:37:13.621Z,10.43
2023-05-21T10:39:40.878Z,10.57
2023-05-21T10:42:20.916Z,10.38
2023-05-21T10:45:14.304Z,10.00
2023-05-21T10:47:58.969Z,9.85
2023-05-21T10:50:54.358Z,9.80
2023-05-21T10:53:23.940Z,9.45
2023-05-21T10:56:07.428Z,9.60
2023-05-21T10:58:57.034Z,9.27
2023-05-21T11:01:26.413Z,9.90
2023-05-21T11:03:56.215Z,9.10
2023-05-21T11:06:25.273Z,9.02
2023-05-21T11:08:55.955Z,9.00
2023-05-21T11:11:48.579Z,9.00
2023-05-21T11:14:36.702Z,8.80
2023-05-21T11:17:14.219Z,9.07
2023-05-21T11:19:53.905Z,8.52
2023-05-21T11:22:26.368Z,9.43
2023-05-21T11:24:54.240Z,8.35
2023-05-21T11:27:37.530Z,8.85
2023-05-21T11:30:25.571Z,8.50
2023-05-21T11:33:07.790Z,8.65
2023-05-21T11:35:46.453Z,8.60
2023-05-21T11:38:14.263Z,9.25
2023-05-21T11:40:51.741Z,9.20
2023-05-21T11:43:19.500Z,8.45
2023-05-21T11:45:47.777Z,8.57
2023-05-21T11:48:14.562Z,8.68
2023-05-21T11:50:45.247Z,7.90
2023-05-21T11:53:12.373Z,7.80
2023-05-21T11:55:43.608Z,7.95
2023-05-21T11:58:13.602Z,8.02
2023-05-21T12:00:40.816Z,8.13
2023-05-21T12:03:08.467Z,7.55
2023-05-21T12:05:48.218Z,7.72
2023-05-21T12:08:28.815Z,7.90
2023-05-21T12:11:02.690Z,7.82
2023-05-21T12:13:29.355Z,8.35
2023-05-21T12:15:56.073Z,8.57
2023-05-21T12:18:22.844Z,7.93
2023-05-21T12:20:52.029Z,8.20
2023-05-21T12:23:24.951Z,8.23
2023-05-21T12:25:52.248Z,8.07
2023-05-21T12:28:21.246Z,8.10
2023-05-21T12:30:48.114Z,7.63
2023-05-21T12:33:14.694Z,8.55
2023-05-21T12:35:41.275Z,8.55
2023-05-21T12:38:14.056Z,8.50
2023-05-21T12:40:41.392Z,8.38
2023-05-21T12:43:08.297Z,8.07
2023-05-21T12:45:37.158Z,8.05
2023-05-21T12:48:03.956Z,7.90
2023-05-21T12:50:30.638Z,7.72
2023-05-21T12:52:58.357Z,8.18
2023-05-21T12:55:26.274Z,8.23
2023-05-21T12:58:05.379Z,7.85
2023-05-21T13:00:33.133Z,8.30
2023-05-21T13:03:04.799Z,7.93
2023-05-21T13:05:31.594Z,8.15
2023-05-21T13:07:58.158Z,8.07
2023-05-21T13:10:24.719Z,7.95
2023-05-21T13:12:51.665Z,8.27
2023-05-21T13:15:18.539Z,8.38
2023-05-21T13:17:45.176Z,7.88
2023-05-21T13:20:15.624Z,7.85
2023-05-21T13:22:43.521Z,8.32
2023-05-21T13:25:12.117Z,7.82
2023-05-21T13:27:39.585Z,7.68
2023-05-21T13:30:06.877Z,7.35
2023-05-21T13:32:34.166Z,7.70
2023-05-21T13:35:01.042Z,7.75
2023-05-21T13:37:27.801Z,8.18
2023-05-21T13:39:54.779Z,7.38
2023-05-21T13:42:21.521Z,7.53
2023-05-21T13:44:48.527Z,7.45
2023-05-21T13:47:15.706Z,8.38
2023-05-21T13:49:42.876Z,8.07
2023-05-21T13:52:10.165Z,8.57
2023-05-21T13:54:38.007Z,7.97
2023-05-21T13:57:11.619Z,7.75
2023-05-21T13:59:40.398Z,8.05
2023-05-21T14:02:08.862Z,7.13
2023-05-21T14:04:38.358Z,7.82
2023-05-21T14:07:06.608Z,6.85
2023-05-21T14:09:36.710Z,8.50
2023-05-21T14:12:06.371Z,6.95
2023-05-21T14:14:33.665Z,7.07
2023-05-21T14:17:00.669Z,7.10
2023-05-21T14:19:30.281Z,6.90
2023-05-21T14:21:56.986Z,7.25
2023-05-21T14:24:23.629Z,7.85
2023-05-21T14:26:50.100Z,7.43
2023-05-21T14:29:16.644Z,7.80
2023-05-21T14:31:43.421Z,7.80
2023-05-21T14:34:10.165Z,7.25
2023-05-21T14:36:36.775Z,7.82
2023-05-21T14:39:03.899Z,7.50
2023-05-21T14:41:30.595Z,7.55
2023-05-21T14:43:57.231Z,7.35
2023-05-21T14:46:30.252Z,7.60
2023-05-21T14:48:59.218Z,7.50
2023-05-21T14:51:25.901Z,7.90
2023-05-21T14:53:52.452Z,7.55
2023-05-21T14:56:21.717Z,7.30
2023-05-21T14:58:48.389Z,7.25
2023-05-21T15:01:15.060Z,7.25
2023-05-21T15:03:41.843Z,7.72
2023-05-21T15:06:10.071Z,8.40
2023-05-21T15:08:36.682Z,7.85
2023-05-21T15:11:03.314Z,7.60
2023-05-21T15:13:29.925Z,8.07
2023-05-21T15:15:56.632Z,7.43
2023-05-21T15:18:24.751Z,7.50
2023-05-21T15:21:28.455Z,7.80
2023-05-21T15:23:56.163Z,8.15
2023-05-21T15:26:25.450Z,7.63
2023-05-21T15:28:52.083Z,7.90
2023-05-21T15:31:18.742Z,7.43
2023-05-21T15:33:45.545Z,7.35
2023-05-21T15:36:12.128Z,8.00
2023-05-21T15:38:38.778Z,7.93
2023-05-21T15:41:06.166Z,7.72
2023-05-21T15:43:32.824Z,8.07
2023-05-21T15:45:59.322Z,7.68
2023-05-21T15:48:25.914Z,8.13
2023-05-21T15:50:52.411Z,7.90
2023-05-21T15:53:18.918Z,7.82
2023-05-21T15:55:45.668Z,8.27
2023-05-21T15:58:12.306Z,7.85
2023-05-21T16:00:38.967Z,7.85
2023-05-21T16:03:08.386Z,7.45
2023-05-21T16:05:35.332Z,7.47
2023-05-21T16:08:02.066Z,8.18
2023-05-21T16:10:28.817Z,7.70
2023-05-21T16:12:55.436Z,7.88
2023-05-21T16:15:22.034Z,7.35
2023-05-21T16:17:48.738Z,8.00
2023-05-21T16:20:16.119Z,8.05
2023-05-21T16:22:42.913Z,7.90
2023-05-21T16:25:09.546Z,7.93
2023-05-21T16:27:36.262Z,7.65
2023-05-21T16:30:04.089Z,8.13
2023-05-21T16:32:30.754Z,8.25
2023-05-21T16:34:57.342Z,8.25
2023-05-21T16:37:24.052Z,7.63
2023-05-21T16:39:51.414Z,7.85
2023-05-21T16:42:17.879Z,8.60
2023-05-21T16:44:44.724Z,7.93
2023-05-21T16:47:11.581Z,7.85
2023-05-21T16:49:38.121Z,7.88
2023-05-21T16:52:05.306Z,8.38
2023-05-21T16:54:31.937Z,8.15
2023-05-21T16:56:59.718Z,8.93
2023-05-21T16:59:26.478Z,7.85
2023-05-21T17:01:53.036Z,8.45
2023-05-21T17:04:19.755Z,8.32
2023-05-21T17:06:46.288Z,8.95
2023-05-21T17:09:13.189Z,9.25
2023-05-21T17:11:42.224Z,9.23
2023-05-21T17:14:10.799Z,10.18
2023-05-21T17:16:42.796Z,8.50
2023-05-21T17:19:09.610Z,9.07
2023-05-21T17:21:36.200Z,8.50
2023-05-21T17:24:02.806Z,7.70
2023-05-21T17:26:29.377Z,7.95
2023-05-21T17:28:56.273Z,8.27
2023-05-21T17:31:23.133Z,8.32
2023-05-21T17:33:49.945Z,8.60
2023-05-21T17:36:21.895Z,8.52
2023-05-21T17:38:50.608Z,8.77
2023-05-21T17:41:19.014Z,8.23
2023-05-21T17:43:46.675Z,8.68
2023-05-21T17:46:18.164Z,8.60
2023-05-21T17:48:45.484Z,9.18
2023-05-21T17:51:12.838Z,8.00
2023-05-21T17:53:40.779Z,7.57
2023-05-21T17:56:10.586Z,7.22
2023-05-21T17:58:37.435Z,8.07
2023-05-21T18:01:04.122Z,7.75
2023-05-21T18:03:30.717Z,8.90
2023-05-21T18:05:57.251Z,17.75
2023-05-21T18:08:23.980Z,10.20
2023-05-21T18:10:52.611Z,10.10
2023-05-21T18:13:19.273Z,9.98
2023-05-21T18:15:46.090Z,9.52
2023-05-21T18:18:19.767Z,10.00
2023-05-21T18:20:48.301Z,10.50
2023-05-21T18:23:15.134Z,11.15
2023-05-21T18:25:42.779Z,11.48
2023-05-21T18:28:09.818Z,11.98
2023-05-21T18:30:37.265Z,12.00
2023-05-21T18:33:04.164Z,11.43
2023-05-21T18:35:34.149Z,12.30
2023-05-21T18:38:00.668Z,11.77
2023-05-21T18:40:30.568Z,13.10
2023-05-21T18:42:57.428Z,13.95
2023-05-21T18:45:23.964Z,13.48
2023-05-21T18:47:50.705Z,12.75
2023-05-21T18:50:19.107Z,14.00
2023-05-21T18:52:46.597Z,15.07
2023-05-21T18:55:14.559Z,15.00
2023-05-21T18:57:41.231Z,17.17
2023-05-21T19:00:09.690Z,14.80
2023-05-21T19:02:37.604Z,14.40
2023-05-21T19:05:06.770Z,14.20
2023-05-21T19:07:33.806Z,16.65
2023-05-21T19:10:00.630Z,15.50
2023-05-21T19:12:29.234Z,15.90
2023-05-21T19:14:55.768Z,16.20
2023-05-21T19:17:22.542Z,16.40
2023-05-21T19:19:55.522Z,14.95
2023-05-21T19:22:25.972Z,15.50
2023-05-21T19:24:54.558Z,14.02
2023-05-21T19:27:21.183Z,15.60
2023-05-21T19:29:48.055Z,16.17
2023-05-21T19:32:16.170Z,16.38
2023-05-21T19:34:43.047Z,15.65
2023-05-21T19:37:09.729Z,16.23
2023-05-21T19:39:41.046Z,13.52
2023-05-21T19:42:08.461Z,15.40
2023-05-21T19:44:36.948Z,14.20
2023-05-21T19:47:03.637Z,14.55
2023-05-21T19:49:30.298Z,14.90
2023-05-21T19:51:57.034Z,15.45
2023-05-21T19:54:24.269Z,15.15
2023-05-21T19:56:51.570Z,15.07
2023-05-21T19:59:18.562Z,16.15
2023-05-21T20:01:45.954Z,15.48
2023-05-21T20:04:13.277Z,15.68
2023-05-21T20:06:40.089Z,15.77
2023-05-21T20:09:07.516Z,17.58
2023-05-21T20:11:34.727Z,14.82
2023-05-21T20:14:02.248Z,17.58
2023-05-21T20:16:29.942Z,17.42
2023-05-21T20:18:58.105Z,16.40
2023-05-21T20:21:25.058Z,17.92
2023-05-21T20:23:53.438Z,17.55
2023-05-21T20:26:20.200Z,15.88
2023-05-21T20:28:46.750Z,16.67
2023-05-21T20:31:13.575Z,18.55
2023-05-21T20:33:41.207Z,17.90
2023-05-21T20:36:08.120Z,17.45
2023-05-21T20:38:37.154Z,17.60
2023-05-21T20:41:04.996Z,18.75
2023-05-21T20:43:31.713Z,17.45
2023-05-21T20:46:01.118Z,16.50
2023-05-21T20:48:29.301Z,19.02
2023-05-21T20:50:57.491Z,17.90
2023-05-21T20:53:24.991Z,19.73
2023-05-21T20:55:54.467Z,20.05
2023-05-21T20:58:23.933Z,18.92
2023-05-21T21:00:50.699Z,19.67
2023-05-21T21:03:18.437Z,17.27
2023-05-21T21:05:45.079Z,18.55
2023-05-21T21:08:12.239Z,17.30
2023-05-21T21:10:41.219Z,18.05
2023-05-21T21:13:08.392Z,21.23
2023-05-21T21:15:35.500Z,20.77
2023-05-21T21:18:02.071Z,17.90
2023-05-21T21:20:28.890Z,19.85
2023-05-21T21:22:55.830Z,19.50
2023-05-21T21:25:22.383Z,19.90
2023-05-21T21:27:49.094Z,22.88
2023-05-21T21:30:16.887Z,25.17
2023-05-21T21:32:43.501Z,19.38
2023-05-21T21:35:10.627Z,23.17
2023-05-21T21:37:37.164Z,24.48
2023-05-21T21:40:04.062Z,22.88
2023-05-21T21:42:30.699Z,25.25
2023-05-21T21:44:57.235Z,27.15
2023-05-21T21:47:23.853Z,26.13
2023-05-21T21:49:50.657Z,27.35
2023-05-21T21:52:17.608Z,26.58
2023-05-21T21:54:44.670Z,27.98
2023-05-21T21:57:11.242Z,27.92
2023-05-21T21:59:38.624Z,28.40
2023-05-21T22:02:05.946Z,27.58
2023-05-21T22:04:32.523Z,25.92
2023-05-21T22:06:59.062Z,26.98
2023-05-21T22:09:25.636Z,24.25
2023-05-21T22:11:53.490Z,26.77
2023-05-21T22:14:22.465Z,26.73
2023-05-21T22:16:49.111Z,27.17
2023-05-21T22:19:17.828Z,28.48
2023-05-21T22:21:46.385Z,27.38
2023-05-21T22:24:24.119Z,28.50
2023-05-21T22:26:51.010Z,24.63
2023-05-21T22:29:17.566Z,24.15
2023-05-21T22:31:44.155Z,24.88
2023-05-21T22:34:11.070Z,28.17
2023-05-21T22:36:38.768Z,23.55
2023-05-21T22:39:05.661Z,23.13
2023-05-21T22:41:32.262Z,20.92
2023-05-21T22:44:00.937Z,23.92
2023-05-21T22:46:27.490Z,26.60
2023-05-21T22:48:54.033Z,26.52
2023-05-21T22:51:21.022Z,20.33
2023-05-21T22:53:47.553Z,25.88
2023-05-21T22:56:14.158Z,24.02
2023-05-21T22:58:40.702Z,26.85
2023-05-21T23:01:07.229Z,23.77
2023-05-21T23:03:33.779Z,25.67
2023-05-21T23:06:00.467Z,26.50
2023-05-21T23:08:27.025Z,22.13
2023-05-21T23:10:53.583Z,26.77
2023-05-21T23:13:20.370Z,26.10
2023-05-21T23:15:48.527Z,26.67
2023-05-21T23:18:15.691Z,29.38
2023-05-21T23:20:43.698Z,23.10
2023-05-21T23:23:10.608Z,22.85
2023-05-21T23:25:38.247Z,21.65
2023-05-21T23:28:05.064Z,22.65
2023-05-21T23:30:31.615Z,24.98
2023-05-21T23:32:58.229Z,25.60
2023-05-21T23:35:24.936Z,24.13
2023-05-21T23:37:51.447Z,24.13
2023-05-21T23:40:17.998Z,20.50
2023-05-21T23:42:44.871Z,25.38
2023-05-21T23:45:11.546Z,18.92
2023-05-21T23:47:38.278Z,27.40
2023-05-21T23:50:05.636Z,28.63
2023-05-21T23:52:32.137Z,29.55
2023-05-21T23:54:59.102Z,29.45
2023-05-21T23:57:25.761Z,28.20
2023-05-21T23:59:52.381Z,28.33
